SAWH/USH METAR and TAF weather

Enter ICAO airport designator
Station Type Date Time Source
SAWH METAR 2020/08/06 01:00 UTC NOAA

SAWH 060100Z 23020KT 9999 SCT035 BKN080 04/M01 Q0996


Station Type Date Time Source
SAWH Decoded METAR 2020/08/06 01:00 UTC NOAA

Ushuaia Aerodrome, Argentina (SAWH) 54-48S 068-19W 14M
Aug 05, 2020 - 09:00 PM EDT / 2020.08.06 0100 UTC
Wind: from the SW (230 degrees) at 23 MPH (20 KT):0
Visibility: greater than 7 mile(s):0
Sky conditions: mostly cloudy
Temperature: 39 F (4 C)
Dew Point: 30 F (-1 C)
Relative Humidity: 69%
Pressure (altimeter): 29.41 in. Hg (0996 hPa)
ob: SAWH 060100Z 23020KT 9999 SCT035 BKN080 04/M01 Q0996
cycle: 1

Station Type Date Time Source
SAWH TAF 2020/08/06 00:06 UTC NOAA

TAF SAWH 052300Z 0600/0624 30010KT CAVOK TX04/0618Z TNM02/0612Z PROB40
TEMPO 0600/0603 25020KT 9999 -RA SCT020 SCT030 OVC090
BECMG 0613/0615 34010KT 9999 SCT030 BKN090

Example: see airport list